Time;durP1;ratioP1;P1;durP2;ratioP2;P2;SDS_P1;SDS_P2;PMS_P1;PMS_P2;Temp;Humidity;BMP_temperature;BMP_pressure;BME280_temperature;BME280_humidity;BME280_pressure;Samples;Min_cycle;Max_cycle;Signal;HPM_P1;HPM_P2
2020/12/14 00:00:38;;;;;;;8.38;3.75;;;10.20;71.40;;;;;;5024186;28;20041;-77
2020/12/14 00:03:05;;;;;;;10.40;3.30;;;10.20;71.10;;;;;;5027160;28;20464;-77
2020/12/14 00:05:31;;;;;;;10.35;3.58;;;10.30;71.00;;;;;;5018774;28;20030;-78
2020/12/14 00:07:57;;;;;;;7.82;2.95;;;10.30;70.90;;;;;;5025857;28;20045;-76
2020/12/14 00:10:22;;;;;;;7.40;3.15;;;10.40;70.50;;;;;;5018105;28;20050;-76
2020/12/14 00:12:49;;;;;;;10.18;2.75;;;10.40;70.50;;;;;;5006269;28;20491;-76
2020/12/14 00:15:14;;;;;;;18.55;3.95;;;10.50;70.10;;;;;;5021246;28;20057;-76
2020/12/14 00:17:40;;;;;;;6.90;3.17;;;10.60;70.10;;;;;;5016233;28;20127;-77
2020/12/14 00:20:06;;;;;;;10.32;3.28;;;10.60;69.30;;;;;;5028879;28;20037;-76
2020/12/14 00:22:35;;;;;;;10.52;3.85;;;10.50;68.80;;;;;;5016631;28;20045;-76
2020/12/14 00:25:02;;;;;;;6.40;3.15;;;10.50;69.40;;;;;;5012663;28;20084;-76
2020/12/14 00:27:28;;;;;;;10.00;3.65;;;10.40;69.50;;;;;;5011830;28;20108;-76
2020/12/14 00:29:54;;;;;;;7.80;3.97;;;10.30;69.40;;;;;;5013729;28;20168;-76
2020/12/14 00:32:20;;;;;;;6.57;2.80;;;10.30;69.70;;;;;;5018867;28;20057;-76
2020/12/14 00:34:45;;;;;;;8.25;2.92;;;10.40;69.60;;;;;;5022187;28;20033;-76
2020/12/14 00:37:11;;;;;;;10.65;3.53;;;10.40;69.40;;;;;;5026072;28;20034;-76
2020/12/14 00:39:37;;;;;;;10.45;3.00;;;10.40;69.40;;;;;;5019195;28;20030;-75
2020/12/14 00:42:04;;;;;;;8.50;2.92;;;10.40;69.20;;;;;;5014115;28;20034;-77
2020/12/14 00:44:29;;;;;;;7.03;2.80;;;10.50;69.30;;;;;;5030604;28;20038;-76
2020/12/14 00:46:55;;;;;;;8.90;2.63;;;10.50;68.50;;;;;;5029918;28;20033;-76
2020/12/14 00:49:21;;;;;;;7.45;2.88;;;10.50;68.40;;;;;;5016276;28;20046;-76
2020/12/14 00:51:46;;;;;;;10.85;3.00;;;10.50;68.70;;;;;;5015721;28;20026;-76
2020/12/14 00:54:12;;;;;;;8.90;3.10;;;10.60;68.70;;;;;;5011887;28;20030;-76
2020/12/14 00:56:38;;;;;;;8.15;2.95;;;10.70;68.20;;;;;;5020684;28;20091;-76
2020/12/14 00:59:04;;;;;;;10.38;3.10;;;10.70;67.90;;;;;;5025104;28;20430;-76
2020/12/14 01:01:30;;;;;;;7.35;2.40;;;10.70;68.00;;;;;;5016077;28;20069;-76
2020/12/14 01:03:56;;;;;;;10.15;2.90;;;10.70;68.00;;;;;;5013911;28;20490;-76
2020/12/14 01:06:22;;;;;;;7.90;2.70;;;10.70;67.80;;;;;;5016374;28;20472;-76
2020/12/14 01:08:47;;;;;;;6.70;2.60;;;10.80;68.00;;;;;;5021363;28;20121;-76
2020/12/14 01:11:13;;;;;;;9.20;3.83;;;10.80;67.80;;;;;;5023087;28;20033;-76
2020/12/14 01:13:38;;;;;;;7.93;3.60;;;10.80;67.70;;;;;;5014392;28;20026;-75
2020/12/14 01:16:08;;;;;;;16.02;4.95;;;10.80;68.00;;;;;;5028180;28;20073;-76
2020/12/14 01:18:37;;;;;;;11.45;3.17;;;10.80;67.70;;;;;;5018176;28;20034;-77
2020/12/14 01:21:03;;;;;;;7.30;3.00;;;10.80;67.70;;;;;;5017650;28;20100;-77
2020/12/14 01:23:29;;;;;;;5.15;2.58;;;10.80;68.00;;;;;;5010224;28;20128;-76
2020/12/14 01:25:54;;;;;;;9.38;2.72;;;10.80;68.10;;;;;;5022943;28;20029;-76
2020/12/14 01:28:20;;;;;;;11.98;3.65;;;10.90;67.90;;;;;;5017499;28;20046;-76
2020/12/14 01:30:45;;;;;;;8.55;2.83;;;12.30;68.70;;;;;;5013211;28;20052;-76
2020/12/14 01:33:12;;;;;;;5.25;2.22;;;10.90;68.10;;;;;;4996721;28;20560;-76
2020/12/14 01:35:37;;;;;;;7.15;2.40;;;10.90;68.30;;;;;;5022499;28;20029;-76
2020/12/14 01:38:04;;;;;;;9.32;3.17;;;11.00;68.10;;;;;;5017331;28;20037;-76
2020/12/14 01:40:30;;;;;;;10.10;3.45;;;11.00;68.10;;;;;;5014545;28;20521;-76
2020/12/14 01:42:55;;;;;;;9.77;2.60;;;11.00;67.80;;;;;;5009217;28;20034;-76
2020/12/14 01:45:21;;;;;;;6.97;3.15;;;10.90;67.90;;;;;;4982273;28;20034;-76
2020/12/14 01:47:51;;;;;;;10.45;3.00;;;10.90;67.90;;;;;;5024794;28;20034;-76
2020/12/14 01:50:17;;;;;;;12.82;2.88;;;10.90;68.10;;;;;;5013837;28;20653;-76
2020/12/14 01:52:45;;;;;;;6.45;2.78;;;10.90;68.10;;;;;;5017341;28;20114;-76
2020/12/14 01:55:14;;;;;;;7.85;3.28;;;11.00;68.00;;;;;;5007609;28;20053;-76
2020/12/14 01:57:40;;;;;;;7.07;2.65;;;10.90;67.80;;;;;;5028375;28;20034;-76
2020/12/14 02:00:08;;;;;;;8.10;2.40;;;10.90;68.00;;;;;;5009087;28;20510;-75
2020/12/14 02:02:33;;;;;;;10.50;3.28;;;10.90;68.10;;;;;;5016187;28;20069;-75
2020/12/14 02:04:59;;;;;;;7.40;2.50;;;10.90;68.20;;;;;;5016805;28;20084;-75
2020/12/14 02:07:27;;;;;;;7.80;2.67;;;10.90;68.20;;;;;;5029005;28;20121;-76
2020/12/14 02:09:53;;;;;;;7.53;2.95;;;11.00;68.10;;;;;;5020484;28;20105;-75
2020/12/14 02:12:21;;;;;;;7.05;2.72;;;11.00;67.70;;;;;;5014473;28;20032;-75
2020/12/14 02:14:52;;;;;;;7.65;2.80;;;11.00;67.90;;;;;;5010630;28;20084;-76
2020/12/14 02:17:19;;;;;;;10.00;4.30;;;11.00;67.80;;;;;;5012639;28;20029;-76
2020/12/14 02:19:46;;;;;;;7.38;2.60;;;11.10;67.80;;;;;;5029598;28;20084;-75
2020/12/14 02:22:12;;;;;;;7.43;2.60;;;11.10;67.80;;;;;;5015150;28;20472;-75
2020/12/14 02:24:38;;;;;;;7.40;2.53;;;11.10;67.40;;;;;;5030934;28;20069;-75
2020/12/14 02:27:03;;;;;;;8.73;3.55;;;11.10;67.60;;;;;;5017191;28;20076;-76
2020/12/14 02:29:29;;;;;;;9.65;3.60;;;11.00;67.70;;;;;;5022310;28;20046;-76
2020/12/14 02:31:54;;;;;;;7.63;2.97;;;11.00;67.90;;;;;;5025105;28;20049;-75
2020/12/14 02:34:20;;;;;;;6.40;2.38;;;11.00;68.10;;;;;;5010314;28;20057;-76
2020/12/14 02:36:46;;;;;;;6.93;3.50;;;11.00;68.20;;;;;;5017141;28;20670;-75
2020/12/14 02:39:11;;;;;;;5.78;2.40;;;11.00;68.40;;;;;;5009732;28;20072;-76
2020/12/14 02:41:37;;;;;;;9.60;2.55;;;11.00;68.20;;;;;;4980688;28;20096;-76
2020/12/14 02:44:02;;;;;;;14.27;5.25;;;10.90;68.60;;;;;;5028319;28;20053;-75
2020/12/14 02:46:28;;;;;;;9.52;3.03;;;10.90;69.10;;;;;;5004409;28;20030;-76
2020/12/14 02:48:53;;;;;;;6.63;3.05;;;10.90;69.10;;;;;;5011447;28;20042;-76
2020/12/14 02:51:20;;;;;;;8.05;2.85;;;10.90;69.30;;;;;;5027514;28;20041;-76
2020/12/14 02:53:49;;;;;;;6.57;3.00;;;10.90;69.50;;;;;;5030683;28;20072;-76
2020/12/14 02:56:16;;;;;;;9.45;3.80;;;10.90;69.70;;;;;;5019999;28;20018;-76
2020/12/14 02:58:43;;;;;;;9.98;3.40;;;11.00;70.20;;;;;;5023314;28;20120;-77
2020/12/14 03:01:09;;;;;;;10.48;2.80;;;11.00;70.20;;;;;;5030599;28;20042;-76
2020/12/14 03:03:35;;;;;;;7.20;2.97;;;11.00;70.20;;;;;;5024054;28;20049;-76
2020/12/14 03:06:00;;;;;;;7.65;2.67;;;11.10;70.40;;;;;;5027691;28;20056;-77
2020/12/14 03:08:26;;;;;;;6.38;2.78;;;11.00;70.50;;;;;;5003286;28;20140;-76
2020/12/14 03:10:52;;;;;;;8.55;3.08;;;11.00;70.70;;;;;;5019324;28;20357;-76
2020/12/14 03:13:18;;;;;;;7.57;3.53;;;11.00;70.70;;;;;;5028490;28;20036;-76
2020/12/14 03:15:43;;;;;;;8.98;3.22;;;11.00;70.70;;;;;;5023929;28;20029;-76
2020/12/14 03:18:09;;;;;;;8.13;2.75;;;11.10;70.80;;;;;;5028480;28;20112;-75
2020/12/14 03:20:34;;;;;;;6.70;3.13;;;11.00;70.70;;;;;;5031784;28;20038;-75
2020/12/14 03:23:00;;;;;;;7.95;3.45;;;11.10;70.90;;;;;;5017094;28;20029;-76
2020/12/14 03:25:26;;;;;;;5.20;2.45;;;11.10;70.80;;;;;;5014417;28;20026;-76
2020/12/14 03:27:52;;;;;;;5.53;2.22;;;11.10;70.80;;;;;;5020705;28;20038;-76
2020/12/14 03:30:18;;;;;;;7.10;3.05;;;11.10;70.70;;;;;;5010485;28;20509;-77
2020/12/14 03:32:44;;;;;;;6.70;2.97;;;11.10;71.00;;;;;;5014471;28;20085;-77
2020/12/14 03:35:10;;;;;;;7.20;2.83;;;11.10;71.40;;;;;;4989813;28;20030;-77
2020/12/14 03:37:36;;;;;;;7.60;3.10;;;11.00;72.00;;;;;;5016637;28;20036;-76
2020/12/14 03:40:05;;;;;;;7.63;2.78;;;11.00;72.50;;;;;;5014759;28;20041;-77
2020/12/14 03:42:31;;;;;;;8.75;2.67;;;11.00;73.00;;;;;;5030811;28;20041;-77
2020/12/14 03:44:57;;;;;;;8.85;4.05;;;11.00;73.00;;;;;;5005129;28;20034;-77
2020/12/14 03:47:29;;;;;;;7.47;2.80;;;11.00;73.10;;;;;;5013065;28;20077;-76
2020/12/14 03:49:55;;;;;;;6.97;3.00;;;11.00;73.40;;;;;;5023936;28;20413;-75
2020/12/14 03:52:20;;;;;;;7.32;3.10;;;11.00;74.10;;;;;;5018004;28;20255;-75
2020/12/14 03:54:46;;;;;;;6.97;2.75;;;11.00;74.30;;;;;;5026091;28;20034;-75
2020/12/14 03:57:11;;;;;;;6.30;3.20;;;11.00;74.10;;;;;;5021564;28;20399;-76
2020/12/14 03:59:37;;;;;;;7.35;2.92;;;11.10;74.30;;;;;;5020835;28;20156;-74
2020/12/14 04:02:02;;;;;;;9.68;3.03;;;11.10;74.80;;;;;;4996210;28;20030;-75
2020/12/14 04:04:28;;;;;;;8.38;3.05;;;11.10;74.80;;;;;;5020587;28;20065;-75
2020/12/14 04:06:57;;;;;;;9.68;2.80;;;11.00;75.00;;;;;;5025089;28;20460;-75
2020/12/14 04:09:23;;;;;;;7.13;2.97;;;11.00;75.00;;;;;;5023149;28;20042;-76
2020/12/14 04:11:48;;;;;;;8.30;3.35;;;11.00;75.40;;;;;;5026108;28;20040;-75
2020/12/14 04:14:14;;;;;;;6.47;3.20;;;11.00;75.50;;;;;;5012832;28;20034;-75
2020/12/14 04:16:42;;;;;;;8.55;3.65;;;11.00;75.90;;;;;;5031409;28;20029;-75
2020/12/14 04:19:08;;;;;;;6.60;3.28;;;10.90;76.20;;;;;;5007631;28;20042;-75
2020/12/14 04:21:34;;;;;;;9.05;3.50;;;11.00;76.60;;;;;;5014098;28;20092;-75
2020/12/14 04:23:59;;;;;;;10.27;4.53;;;11.00;76.60;;;;;;5017807;28;20034;-75
2020/12/14 04:26:25;;;;;;;9.60;3.50;;;10.90;77.10;;;;;;5014149;28;20030;-75
2020/12/14 04:28:51;;;;;;;8.68;3.33;;;10.90;77.30;;;;;;5018202;28;20476;-76
2020/12/14 04:31:16;;;;;;;8.05;3.45;;;10.80;77.60;;;;;;5025658;28;20111;-75
2020/12/14 04:33:42;;;;;;;6.72;3.28;;;10.90;77.80;;;;;;5005698;28;20046;-75
2020/12/14 04:36:07;;;;;;;11.30;4.18;;;10.80;77.80;;;;;;5011267;28;20026;-75
2020/12/14 04:38:34;;;;;;;6.88;3.78;;;10.90;78.20;;;;;;5017164;28;20033;-75
2020/12/14 04:41:04;;;;;;;11.38;5.05;;;10.90;78.50;;;;;;5013747;28;20045;-76
2020/12/14 04:43:30;;;;;;;7.97;3.38;;;10.80;78.60;;;;;;5025148;28;20083;-76
2020/12/14 04:45:56;;;;;;;10.82;3.92;;;10.90;78.80;;;;;;5017440;28;20484;-76
2020/12/14 04:48:23;;;;;;;8.18;4.78;;;10.90;78.40;;;;;;5012134;28;20026;-76
2020/12/14 04:50:50;;;;;;;8.10;4.28;;;10.90;78.80;;;;;;5014793;28;20049;-75
2020/12/14 04:53:16;;;;;;;9.52;4.55;;;10.90;78.90;;;;;;5024783;28;20034;-76
2020/12/14 04:55:42;;;;;;;10.15;4.85;;;10.90;79.10;;;;;;5012727;28;20053;-75
2020/12/14 04:58:07;;;;;;;8.98;3.97;;;10.90;79.00;;;;;;5026688;28;20045;-76
2020/12/14 05:00:35;;;;;;;7.43;4.38;;;10.90;79.20;;;;;;5031802;28;20540;-75
2020/12/14 05:03:01;;;;;;;7.25;3.72;;;10.90;79.30;;;;;;5019491;28;20117;-75
2020/12/14 05:05:27;;;;;;;9.15;3.78;;;10.90;79.60;;;;;;5011510;28;20037;-75
2020/12/14 05:07:54;;;;;;;8.43;3.85;;;10.80;79.70;;;;;;5020358;28;20030;-76
2020/12/14 05:10:27;;;;;;;9.52;4.15;;;10.80;79.70;;;;;;5028103;28;20116;-76
2020/12/14 05:12:53;;;;;;;13.43;4.47;;;10.80;79.80;;;;;;5024420;28;20026;-76
2020/12/14 05:15:24;;;;;;;12.30;4.10;;;10.80;79.70;;;;;;5024473;28;20491;-75
2020/12/14 05:17:51;;;;;;;8.93;4.10;;;10.80;79.70;;;;;;5012399;28;20040;-75
2020/12/14 05:20:19;;;;;;;8.18;4.43;;;10.90;79.80;;;;;;5022137;28;20037;-76
2020/12/14 05:22:59;;;;;;;8.55;4.00;;;10.90;79.60;;;;;;5030775;28;20108;-75
2020/12/14 05:25:25;;;;;;;9.15;4.00;;;10.90;79.70;;;;;;5029856;28;20112;-76
2020/12/14 05:28:04;;;;;;;9.30;4.32;;;10.90;80.00;;;;;;5043849;28;20117;-76
2020/12/14 05:30:37;;;;;;;9.57;4.93;;;10.80;79.80;;;;;;5023886;28;20120;-75
2020/12/14 05:33:04;;;;;;;7.50;4.53;;;10.80;79.90;;;;;;5024248;28;20041;-76
2020/12/14 05:35:35;;;;;;;7.88;4.55;;;10.80;80.00;;;;;;5021233;28;20037;-75
2020/12/14 05:38:15;;;;;;;8.20;3.78;;;10.90;79.90;;;;;;5031045;28;20033;-76
2020/12/14 05:40:46;;;;;;;10.18;4.55;;;10.80;79.90;;;;;;5021438;28;20177;-76
2020/12/14 05:43:14;;;;;;;9.63;3.80;;;10.80;79.90;;;;;;5027750;28;20036;-76
2020/12/14 05:45:41;;;;;;;7.13;3.78;;;10.80;79.90;;;;;;5022487;28;20030;-75
2020/12/14 05:48:32;;;;;;;12.55;4.97;;;10.90;79.80;;;;;;5011885;28;20026;-75
2020/12/14 05:51:01;;;;;;;8.82;3.70;;;10.90;79.70;;;;;;5021559;28;20116;-76
2020/12/14 05:53:34;;;;;;;7.45;3.22;;;10.90;79.70;;;;;;5028727;28;20041;-76
2020/12/14 05:56:01;;;;;;;9.07;4.57;;;10.90;79.60;;;;;;5029757;28;20034;-76
2020/12/14 05:58:29;;;;;;;13.25;5.05;;;10.90;79.80;;;;;;5025826;28;20067;-76
2020/12/14 06:00:56;;;;;;;8.60;4.00;;;10.90;79.90;;;;;;5024900;28;20034;-76
2020/12/14 06:03:25;;;;;;;9.90;4.25;;;10.90;79.80;;;;;;5023403;28;20029;-75
2020/12/14 06:06:05;;;;;;;8.70;3.35;;;10.90;79.70;;;;;;5011819;28;20103;-76
2020/12/14 06:08:36;;;;;;;7.13;4.07;;;10.90;79.70;;;;;;5029513;28;20029;-76
2020/12/14 06:11:04;;;;;;;9.35;4.63;;;10.90;79.80;;;;;;5030389;28;20162;-77
2020/12/14 06:13:31;;;;;;;10.75;5.05;;;10.90;79.80;;;;;;5019124;28;20057;-76
2020/12/14 06:16:00;;;;;;;11.10;4.50;;;10.90;80.00;;;;;;5014710;28;20048;-76
2020/12/14 06:18:33;;;;;;;9.02;3.85;;;10.80;80.10;;;;;;5016097;28;20301;-76
2020/12/14 06:21:00;;;;;;;10.32;4.32;;;10.90;80.00;;;;;;5021952;28;20022;-76
2020/12/14 06:23:30;;;;;;;10.38;5.03;;;11.00;79.90;;;;;;5009916;28;20124;-76
2020/12/14 06:25:56;;;;;;;7.30;3.88;;;11.00;79.70;;;;;;5029326;28;20030;-75
2020/12/14 06:28:34;;;;;;;9.52;4.07;;;11.00;79.80;;;;;;5012014;28;20109;-76
2020/12/14 06:31:00;;;;;;;10.52;5.10;;;11.00;79.90;;;;;;5025261;28;20080;-76
2020/12/14 06:33:52;;;;;;;7.13;3.30;;;11.00;80.00;;;;;;5028860;28;20108;-76
2020/12/14 06:36:22;;;;;;;8.57;3.83;;;11.00;79.80;;;;;;5009879;28;20417;-76
2020/12/14 06:38:49;;;;;;;9.25;3.97;;;11.10;79.70;;;;;;5031623;28;20033;-75
2020/12/14 06:41:17;;;;;;;7.70;4.20;;;11.00;79.80;;;;;;5021935;28;20037;-75
2020/12/14 06:43:44;;;;;;;6.28;3.50;;;11.10;79.80;;;;;;5024802;28;20030;-75
2020/12/14 06:46:10;;;;;;;7.65;3.95;;;11.00;79.80;;;;;;5014484;28;20041;-75
2020/12/14 06:48:44;;;;;;;8.93;4.38;;;11.00;79.80;;;;;;5027440;28;20490;-76
2020/12/14 06:51:15;;;;;;;8.63;3.90;;;11.00;79.90;;;;;;5027094;28;20045;-75
2020/12/14 06:53:44;;;;;;;8.07;3.85;;;11.00;80.00;;;;;;5010329;28;20038;-76
2020/12/14 06:56:15;;;;;;;7.03;4.32;;;11.00;80.20;;;;;;5010841;28;20037;-77
2020/12/14 06:58:43;;;;;;;6.90;3.65;;;11.00;80.30;;;;;;5025569;28;20034;-75
2020/12/14 07:01:33;;;;;;;10.73;4.30;;;11.00;80.60;;;;;;5013202;28;20022;-75
2020/12/14 07:04:04;;;;;;;9.48;4.82;;;10.90;81.00;;;;;;5015484;28;20390;-76
2020/12/14 07:06:30;;;;;;;8.90;5.28;;;11.00;81.10;;;;;;5010998;28;20029;-75
2020/12/14 07:08:56;;;;;;;11.40;5.07;;;10.90;81.40;;;;;;5024351;28;20025;-75
2020/12/14 07:11:24;;;;;;;10.93;5.25;;;10.90;81.40;;;;;;5017767;28;20125;-75
2020/12/14 07:13:51;;;;;;;7.55;4.50;;;10.90;81.40;;;;;;5009185;28;20062;-75
2020/12/14 07:16:18;;;;;;;9.73;5.05;;;10.90;81.40;;;;;;5008989;28;20033;-75
2020/12/14 07:18:46;;;;;;;8.68;4.68;;;11.00;81.50;;;;;;5011545;28;20492;-76
2020/12/14 07:21:17;;;;;;;12.75;6.43;;;10.90;81.60;;;;;;5015612;28;20018;-76
2020/12/14 07:23:44;;;;;;;10.40;5.22;;;10.90;81.90;;;;;;5018872;28;20495;-75
2020/12/14 07:26:14;;;;;;;9.32;4.90;;;10.90;81.80;;;;;;5011196;28;20029;-74
2020/12/14 07:28:51;;;;;;;10.80;5.50;;;10.90;81.80;;;;;;5018564;28;20068;-76
2020/12/14 07:31:23;;;;;;;11.40;6.10;;;10.90;81.90;;;;;;5015026;28;20034;-76
2020/12/14 07:33:58;;;;;;;9.90;5.82;;;11.00;81.90;;;;;;5014330;28;20113;-76
2020/12/14 07:36:26;;;;;;;12.82;5.13;;;11.00;81.80;;;;;;5018346;28;20417;-76
2020/12/14 07:38:54;;;;;;;11.05;4.97;;;11.00;81.60;;;;;;5019007;28;20033;-75
2020/12/14 07:41:21;;;;;;;8.52;4.88;;;11.00;81.50;;;;;;5029830;28;20037;-76
2020/12/14 07:43:55;;;;;;;10.38;5.85;;;11.10;81.60;;;;;;5030446;28;20034;-75
2020/12/14 07:46:30;;;;;;;9.52;5.50;;;11.10;81.40;;;;;;5018808;28;20030;-76
2020/12/14 07:48:58;;;;;;;8.60;4.95;;;11.20;81.20;;;;;;5022394;28;20383;-76
2020/12/14 07:51:25;;;;;;;7.22;4.15;;;11.30;80.90;;;;;;5015459;28;20025;-76
2020/12/14 07:53:53;;;;;;;8.68;5.57;;;11.40;80.70;;;;;;5018848;28;20030;-74
2020/12/14 07:56:20;;;;;;;13.43;7.07;;;11.40;80.70;;;;;;5029997;28;20034;-75
2020/12/14 07:58:50;;;;;;;14.77;7.03;;;11.40;80.90;;;;;;5021103;28;20044;-76
2020/12/14 08:01:20;;;;;;;11.77;6.95;;;11.40;81.10;;;;;;5024533;28;20030;-76
2020/12/14 08:03:46;;;;;;;9.20;6.93;;;11.40;81.20;;;;;;5021247;28;20037;-75
2020/12/14 08:06:19;;;;;;;9.48;7.03;;;11.30;81.30;;;;;;5028654;28;20025;-76
2020/12/14 08:08:49;;;;;;;12.70;7.30;;;11.40;81.60;;;;;;5029419;28;20125;-75
2020/12/14 08:11:17;;;;;;;9.70;6.18;;;11.40;81.30;;;;;;5028323;28;20041;-76
2020/12/14 08:13:45;;;;;;;13.13;7.68;;;11.50;81.40;;;;;;5028914;28;20034;-75
2020/12/14 08:16:16;;;;;;;10.07;6.40;;;11.40;81.70;;;;;;5017866;28;20045;-77
2020/12/14 08:18:44;;;;;;;10.88;7.43;;;11.40;81.70;;;;;;5013349;28;20034;-76
2020/12/14 08:21:23;;;;;;;11.20;7.80;;;11.50;81.80;;;;;;5010431;28;20120;-76
2020/12/14 08:23:50;;;;;;;10.20;7.22;;;11.50;81.80;;;;;;5019533;28;20036;-75
2020/12/14 08:26:22;;;;;;;12.05;8.57;;;11.60;81.70;;;;;;5023623;28;20060;-76
2020/12/14 08:28:50;;;;;;;10.07;7.38;;;11.60;81.90;;;;;;5016510;28;20030;-76
2020/12/14 08:31:15;;;;;;;12.32;7.38;;;11.50;81.90;;;;;;5015897;28;20099;-76
2020/12/14 08:33:57;;;;;;;11.30;7.28;;;11.50;82.10;;;;;;4993380;28;20396;-75
2020/12/14 08:36:24;;;;;;;12.30;8.07;;;11.50;82.30;;;;;;5024646;28;20026;-75
2020/12/14 08:38:51;;;;;;;11.68;8.32;;;11.00;82.10;;;;;;5041803;28;20429;-76
2020/12/14 08:41:22;;;;;;;13.77;9.38;;;11.50;82.60;;;;;;5031320;28;20515;-75
2020/12/14 08:43:48;;;;;;;15.70;9.32;;;11.50;82.80;;;;;;5019494;28;20125;-75
2020/12/14 08:46:16;;;;;;;12.00;8.13;;;11.50;82.90;;;;;;5014773;28;20042;-75
2020/12/14 08:48:51;;;;;;;13.20;8.20;;;11.50;82.90;;;;;;5028833;28;20029;-75
2020/12/14 08:51:23;;;;;;;11.55;7.97;;;11.60;82.90;;;;;;5020224;28;20052;-76
2020/12/14 08:53:51;;;;;;;10.75;7.22;;;11.60;82.80;;;;;;5017858;28;20040;-76
2020/12/14 08:56:21;;;;;;;12.15;7.10;;;11.70;82.50;;;;;;5029644;28;20021;-76
2020/12/14 08:58:52;;;;;;;13.75;8.40;;;11.80;82.20;;;;;;5020806;28;20044;-80
2020/12/14 09:01:23;;;;;;;11.27;8.15;;;11.80;82.20;;;;;;5016808;28;20101;-76
2020/12/14 09:03:54;;;;;;;10.38;8.07;;;11.80;82.50;;;;;;5019038;28;20056;-80
2020/12/14 09:06:20;;;;;;;14.18;10.10;;;11.70;82.80;;;;;;5025231;28;20040;-78
2020/12/14 09:09:05;;;;;;;11.45;8.30;;;11.70;83.00;;;;;;5023593;28;20033;-79
2020/12/14 09:11:33;;;;;;;12.82;9.18;;;11.70;83.30;;;;;;5019046;28;20120;-79
2020/12/14 09:14:00;;;;;;;11.75;8.13;;;11.70;83.20;;;;;;5010227;28;20455;-75
2020/12/14 09:16:26;;;;;;;11.45;8.05;;;11.80;83.40;;;;;;5025704;28;20113;-78
2020/12/14 09:18:52;;;;;;;12.90;8.93;;;11.80;83.30;;;;;;5012100;28;20121;-78
2020/12/14 09:21:18;;;;;;;12.38;9.07;;;11.90;83.20;;;;;;5025426;28;20041;-75
2020/12/14 09:23:45;;;;;;;13.05;8.73;;;11.90;83.20;;;;;;5028733;28;20545;-78
2020/12/14 09:26:11;;;;;;;11.57;8.32;;;11.90;83.10;;;;;;5026869;28;20025;-78
2020/12/14 09:28:36;;;;;;;12.20;8.73;;;12.00;82.90;;;;;;5022485;28;20091;-77
2020/12/14 09:31:04;;;;;;;11.80;7.85;;;12.10;82.80;;;;;;5005624;28;20171;-75
2020/12/14 09:33:30;;;;;;;10.63;7.65;;;12.10;82.80;;;;;;5016875;28;20152;-85
2020/12/14 09:35:55;;;;;;;13.88;10.23;;;12.10;83.00;;;;;;5020599;28;20465;-75
2020/12/14 09:38:21;;;;;;;12.57;9.35;;;12.20;83.00;;;;;;5012574;28;20115;-80
2020/12/14 09:40:54;;;;;;;12.82;8.60;;;12.20;82.90;;;;;;5017242;28;20048;-74
2020/12/14 09:43:20;;;;;;;12.03;8.50;;;12.20;82.90;;;;;;5012022;28;20057;-74
2020/12/14 09:45:50;;;;;;;13.25;9.20;;;12.20;82.90;;;;;;5029747;28;20049;-79
2020/12/14 09:48:16;;;;;;;12.65;8.60;;;12.20;83.00;;;;;;5025839;28;20021;-79
2020/12/14 09:50:42;;;;;;;11.27;8.18;;;12.20;83.20;;;;;;5027427;28;20045;-78
2020/12/14 09:53:07;;;;;;;11.60;8.30;;;12.30;83.30;;;;;;5026271;28;20022;-76
2020/12/14 09:55:33;;;;;;;15.32;9.27;;;12.20;83.20;;;;;;5022311;28;20052;-79
2020/12/14 09:57:59;;;;;;;11.05;7.65;;;12.30;83.30;;;;;;5020843;28;20034;-78
2020/12/14 10:00:24;;;;;;;12.52;9.02;;;12.30;83.30;;;;;;5019435;28;20139;-79
2020/12/14 10:02:50;;;;;;;13.40;8.18;;;12.40;83.20;;;;;;5032232;28;20037;-79
2020/12/14 10:05:16;;;;;;;10.75;7.20;;;12.50;83.10;;;;;;5027355;28;20037;-78
2020/12/14 10:07:43;;;;;;;10.57;6.88;;;12.60;83.00;;;;;;5026574;28;20030;-78
2020/12/14 10:10:09;;;;;;;9.85;6.63;;;12.70;82.70;;;;;;5029666;28;20387;-76
2020/12/14 10:12:35;;;;;;;9.20;6.03;;;12.80;82.60;;;;;;5023683;28;20060;-77
2020/12/14 10:15:00;;;;;;;10.13;6.68;;;12.90;82.40;;;;;;5017478;28;20038;-75
2020/12/14 10:17:26;;;;;;;8.88;6.18;;;13.00;82.40;;;;;;5012427;28;20044;-79
2020/12/14 10:19:54;;;;;;;8.20;5.78;;;13.10;82.40;;;;;;5023162;28;20042;-77
2020/12/14 10:22:20;;;;;;;9.02;6.03;;;13.10;82.20;;;;;;5008988;28;20562;-79
2020/12/14 10:24:45;;;;;;;9.48;6.43;;;13.20;82.30;;;;;;5018981;28;20068;-80
2020/12/14 10:27:11;;;;;;;7.88;5.15;;;13.20;82.40;;;;;;5028140;28;20053;-78
2020/12/14 10:29:37;;;;;;;9.95;6.47;;;13.30;82.70;;;;;;5012246;28;20056;-79
2020/12/14 10:32:03;;;;;;;7.70;5.25;;;13.30;82.60;;;;;;5025151;28;20065;-77
2020/12/14 10:34:30;;;;;;;7.63;4.97;;;13.40;82.50;;;;;;5029453;28;20357;-79
2020/12/14 10:36:56;;;;;;;8.45;5.78;;;13.40;82.40;;;;;;5022624;28;20047;-77
2020/12/14 10:39:22;;;;;;;8.07;5.38;;;13.50;82.40;;;;;;5027604;28;20037;-77
2020/12/14 10:41:51;;;;;;;8.40;4.95;;;13.60;82.10;;;;;;5023298;28;20128;-77
2020/12/14 10:44:17;;;;;;;7.68;5.43;;;13.60;82.00;;;;;;5027885;28;20087;-78
2020/12/14 10:46:43;;;;;;;8.18;4.80;;;13.70;81.90;;;;;;5031182;28;20418;-73
2020/12/14 10:49:10;;;;;;;7.78;4.85;;;13.70;81.80;;;;;;5010428;28;20473;-78
2020/12/14 10:51:36;;;;;;;8.32;4.30;;;13.70;81.70;;;;;;5025676;28;20025;-77
2020/12/14 10:54:02;;;;;;;6.07;3.80;;;13.80;81.50;;;;;;5013917;28;20165;-75
2020/12/14 10:56:28;;;;;;;7.88;5.07;;;13.80;81.00;;;;;;5013351;28;20037;-78
2020/12/14 10:58:55;;;;;;;7.65;4.93;;;13.80;81.10;;;;;;5017071;28;20032;-77
2020/12/14 11:01:21;;;;;;;6.78;4.38;;;13.90;81.20;;;;;;5018506;28;20026;-76
2020/12/14 11:03:46;;;;;;;6.68;4.50;;;13.90;81.00;;;;;;5028731;28;20038;-75
2020/12/14 11:06:12;;;;;;;7.75;4.65;;;13.90;80.80;;;;;;5026764;28;20068;-77
2020/12/14 11:08:38;;;;;;;7.13;4.65;;;13.90;80.90;;;;;;5025555;28;20022;-78
2020/12/14 11:11:03;;;;;;;6.88;4.38;;;13.90;80.90;;;;;;5032465;28;20038;-78
2020/12/14 11:13:29;;;;;;;10.55;5.30;;;13.90;80.80;;;;;;5027378;28;20126;-77
2020/12/14 11:15:55;;;;;;;7.20;4.20;;;13.90;80.70;;;;;;5022067;28;20091;-76
2020/12/14 11:18:21;;;;;;;8.43;4.10;;;14.00;80.60;;;;;;5036247;28;20060;-74
2020/12/14 11:20:47;;;;;;;7.80;4.20;;;14.00;80.40;;;;;;5031056;28;20430;-75
2020/12/14 11:23:13;;;;;;;9.20;5.00;;;14.00;80.30;;;;;;5024781;28;20041;-76
2020/12/14 11:25:39;;;;;;;6.20;4.00;;;14.10;80.30;;;;;;5033522;28;20026;-77
2020/12/14 11:28:04;;;;;;;7.57;4.32;;;14.10;80.00;;;;;;5008854;28;20502;-78
2020/12/14 11:30:30;;;;;;;8.43;4.82;;;14.10;79.90;;;;;;5007889;28;20100;-77
2020/12/14 11:32:56;;;;;;;8.55;4.78;;;14.10;79.90;;;;;;5005169;28;20062;-76
2020/12/14 11:35:21;;;;;;;8.98;5.10;;;14.10;79.80;;;;;;5030123;28;20033;-75
2020/12/14 11:37:47;;;;;;;6.70;4.30;;;14.10;79.80;;;;;;5033396;28;20600;-76
2020/12/14 11:40:14;;;;;;;7.82;4.88;;;14.10;79.70;;;;;;5037723;28;20029;-75
2020/12/14 11:42:39;;;;;;;8.23;4.20;;;14.10;79.50;;;;;;5021580;28;20029;-76
2020/12/14 11:45:09;;;;;;;7.15;4.10;;;14.10;79.70;;;;;;5031372;28;20040;-76
2020/12/14 11:47:35;;;;;;;6.53;4.00;;;14.10;79.70;;;;;;5029706;28;20080;-76
2020/12/14 11:50:02;;;;;;;6.80;4.30;;;14.90;79.90;;;;;;5013947;28;20188;-72
2020/12/14 11:52:28;;;;;;;6.50;4.50;;;14.10;79.40;;;;;;5026229;28;20121;-73
2020/12/14 11:54:54;;;;;;;6.20;3.97;;;14.20;79.50;;;;;;5029646;28;20044;-72
2020/12/14 11:57:19;;;;;;;7.75;4.57;;;14.20;79.30;;;;;;5024281;28;20038;-72
2020/12/14 11:59:45;;;;;;;6.82;4.63;;;14.20;79.20;;;;;;5013629;28;20507;-73
2020/12/14 12:02:12;;;;;;;7.18;4.53;;;14.10;79.30;;;;;;5027196;28;20072;-72
2020/12/14 12:04:37;;;;;;;6.57;3.97;;;14.20;79.30;;;;;;5010909;28;20034;-73
2020/12/14 12:07:05;;;;;;;6.22;3.92;;;14.20;79.30;;;;;;5025490;28;20459;-72
2020/12/14 12:09:36;;;;;;;7.97;4.10;;;14.20;79.10;;;;;;5020322;28;20042;-72
2020/12/14 12:12:03;;;;;;;8.57;3.92;;;14.20;79.20;;;;;;5023707;28;20105;-72
2020/12/14 12:14:30;;;;;;;7.68;4.50;;;14.10;79.60;;;;;;5015050;28;20349;-72
2020/12/14 12:16:56;;;;;;;6.28;4.50;;;14.20;78.80;;;;;;5016123;28;20033;-73
2020/12/14 12:19:21;;;;;;;6.53;4.85;;;14.20;78.70;;;;;;5024761;28;20042;-73
2020/12/14 12:21:50;;;;;;;6.53;4.22;;;14.20;78.50;;;;;;5009262;28;20041;-73
2020/12/14 12:24:16;;;;;;;7.25;4.60;;;14.20;78.40;;;;;;5014961;28;20114;-73
2020/12/14 12:26:50;;;;;;;7.57;4.65;;;14.20;78.20;;;;;;5022958;28;20034;-73
2020/12/14 12:29:20;;;;;;;8.73;4.45;;;14.20;78.20;;;;;;5022542;28;20034;-73
2020/12/14 12:31:53;;;;;;;8.10;4.47;;;14.20;78.40;;;;;;5027483;28;20060;-74
2020/12/14 12:34:19;;;;;;;8.15;4.13;;;14.30;78.30;;;;;;5024552;28;20029;-74
2020/12/14 12:36:52;;;;;;;8.02;4.63;;;14.30;78.30;;;;;;5016392;28;20044;-74
2020/12/14 12:39:19;;;;;;;6.25;4.10;;;14.30;78.10;;;;;;5011765;28;20034;-73
2020/12/14 12:41:46;;;;;;;6.70;4.15;;;14.30;78.00;;;;;;5022801;28;20040;-73
2020/12/14 12:44:11;;;;;;;6.22;3.88;;;14.40;78.10;;;;;;5012662;28;20079;-74